Time;durP1;ratioP1;P1;durP2;ratioP2;P2;SDS_P1;SDS_P2;PMS_P1;PMS_P2;Temp;Humidity;BMP_temperature;BMP_pressure;BME280_temperature;BME280_humidity;BME280_pressure;Samples;Min_cycle;Max_cycle;Signal;HPM_P1;HPM_P2
2022/06/25 00:01:35;;;;;;;4.75;2.83;;;;;;;19.98;100.00;100005.31;5173837;28;20030;-72
2022/06/25 00:05:27;;;;;;;5.05;3.33;;;;;;;19.90;100.00;100016.53;5171704;28;20139;-72
2022/06/25 00:06:55;;;;;;;4.90;3.03;;;;;;;19.85;100.00;100021.41;5169761;28;20030;-72
2022/06/25 00:09:26;;;;;;;6.38;3.20;;;;;;;19.81;100.00;100032.38;5172558;28;20033;-73
2022/06/25 00:14:45;;;;;;;6.65;3.75;;;;;;;19.66;100.00;100042.44;5166795;28;20041;-72
2022/06/25 00:17:16;;;;;;;6.68;3.28;;;;;;;19.72;100.00;100031.31;5188901;28;20018;-72
2022/06/25 00:19:46;;;;;;;4.40;3.13;;;;;;;19.78;100.00;100036.13;5163429;28;20033;-72
2022/06/25 00:22:17;;;;;;;5.30;3.45;;;;;;;19.81;100.00;100030.53;5167164;28;20049;-73
2022/06/25 00:24:47;;;;;;;6.78;4.00;;;;;;;19.88;100.00;100033.53;5173774;28;20061;-73
2022/06/25 00:27:18;;;;;;;5.72;3.95;;;;;;;19.94;100.00;100036.53;5159244;28;20052;-72
2022/06/25 00:29:48;;;;;;;6.75;4.20;;;;;;;20.02;100.00;100034.16;5169551;28;20026;-72
2022/06/25 00:32:18;;;;;;;5.97;4.32;;;;;;;20.15;100.00;100024.19;5165588;28;20036;-73
2022/06/25 00:34:49;;;;;;;6.40;4.50;;;;;;;20.22;100.00;100020.06;5174545;28;20036;-74
2022/06/25 00:37:19;;;;;;;6.75;4.68;;;;;;;20.45;100.00;100010.16;5169690;28;20468;-74
2022/06/25 00:39:50;;;;;;;7.00;4.88;;;;;;;20.47;100.00;100013.53;5173159;28;20030;-74
2022/06/25 00:42:20;;;;;;;7.20;4.32;;;;;;;20.43;100.00;100023.56;5165993;28;20030;-73
2022/06/25 00:44:53;;;;;;;5.30;3.97;;;;;;;20.34;100.00;100034.09;5162811;28;20045;-73
2022/06/25 00:47:24;;;;;;;6.20;4.07;;;;;;;20.36;100.00;100035.66;5172149;28;20029;-74
2022/06/25 00:49:54;;;;;;;7.65;4.53;;;;;;;20.35;100.00;100031.34;5164434;28;20034;-74
2022/06/25 00:52:27;;;;;;;5.97;3.90;;;;;;;20.35;100.00;100033.13;5167456;28;20101;-73
2022/06/25 00:55:05;;;;;;;7.72;4.40;;;;;;;20.47;100.00;100034.75;5171304;28;20032;-73
2022/06/25 00:57:38;;;;;;;6.50;4.38;;;;;;;20.49;100.00;100046.09;5172095;28;20032;-74
2022/06/25 01:00:20;;;;;;;8.40;4.60;;;;;;;20.37;100.00;100047.13;5185046;28;20058;-74
2022/06/25 01:02:50;;;;;;;7.03;4.13;;;;;;;20.47;100.00;100056.81;5167538;28;20030;-74
2022/06/25 01:05:20;;;;;;;6.85;4.15;;;;;;;20.42;100.00;100064.34;5172208;28;20036;-74
2022/06/25 01:07:51;;;;;;;11.35;4.30;;;;;;;20.11;100.00;100054.59;5170643;28;20030;-73
2022/06/25 01:10:21;;;;;;;6.32;4.25;;;;;;;20.00;100.00;100051.97;5172020;28;20052;-75
2022/06/25 01:12:51;;;;;;;9.48;4.07;;;;;;;20.16;100.00;100056.88;5165450;28;20049;-73
2022/06/25 01:15:22;;;;;;;7.72;4.05;;;;;;;20.05;100.00;100065.72;5164911;28;20021;-73
2022/06/25 01:17:52;;;;;;;6.57;3.95;;;;;;;19.95;100.00;100070.06;5185461;28;20034;-75
2022/06/25 01:20:26;;;;;;;8.63;4.00;;;;;;;19.86;100.00;100067.31;5162219;28;20036;-73
2022/06/25 01:22:56;;;;;;;6.78;4.18;;;;;;;19.89;100.00;100070.56;5167340;28;20094;-73
2022/06/25 01:25:34;;;;;;;6.47;4.40;;;;;;;19.93;100.00;100077.31;5169626;28;20125;-74
2022/06/25 01:28:06;;;;;;;7.57;3.72;;;;;;;19.92;100.00;100077.44;5186632;28;20033;-73
2022/06/25 01:30:37;;;;;;;7.18;4.43;;;;;;;19.81;100.00;100075.63;5168903;28;20472;-73
2022/06/25 01:33:08;;;;;;;7.88;4.85;;;;;;;19.68;100.00;100072.31;5187398;28;20060;-73
2022/06/25 01:35:38;;;;;;;8.77;4.75;;;;;;;19.61;100.00;100071.09;5169458;28;20026;-73
2022/06/25 01:38:09;;;;;;;7.15;4.88;;;;;;;19.58;100.00;100076.66;5170592;28;20476;-74
2022/06/25 01:40:39;;;;;;;9.57;5.30;;;;;;;19.58;100.00;100076.66;5169461;28;20049;-74
2022/06/25 01:43:09;;;;;;;8.35;5.70;;;;;;;19.65;100.00;100080.50;5170988;28;20079;-74
2022/06/25 01:45:41;;;;;;;9.45;6.15;;;;;;;19.72;100.00;100079.06;5167416;28;20029;-74
2022/06/25 01:48:11;;;;;;;11.00;5.53;;;;;;;19.41;100.00;100087.78;5166082;28;20423;-73
2022/06/25 01:50:42;;;;;;;10.45;5.45;;;;;;;19.51;100.00;100091.38;5161198;28;20025;-74
2022/06/25 01:53:12;;;;;;;11.95;5.10;;;;;;;19.43;100.00;100104.38;5164492;28;20518;-74
2022/06/25 01:55:43;;;;;;;9.02;5.32;;;;;;;19.24;100.00;100104.16;5172742;28;20044;-74
2022/06/25 01:58:13;;;;;;;10.35;5.53;;;;;;;19.28;100.00;100107.41;5168012;28;20436;-73
2022/06/25 02:00:43;;;;;;;7.05;4.43;;;;;;;19.40;100.00;100114.38;5173092;28;20430;-73
2022/06/25 02:03:14;;;;;;;7.55;4.85;;;;;;;19.43;100.00;100117.66;5167229;28;20026;-74
2022/06/25 02:05:57;;;;;;;11.68;4.95;;;;;;;19.48;100.00;100119.94;5170824;28;20129;-73
2022/06/25 02:08:36;;;;;;;11.68;4.43;;;;;;;19.42;100.00;100112.47;5169419;28;20578;-73
2022/06/25 02:11:08;;;;;;;7.13;3.95;;;;;;;19.28;100.00;100118.84;5169688;28;20558;-73
2022/06/25 02:13:38;;;;;;;8.02;4.63;;;;;;;18.93;100.00;100123.34;5170827;28;20483;-74
2022/06/25 02:16:09;;;;;;;7.88;4.70;;;;;;;18.95;100.00;100124.06;5168397;28;20036;-74
2022/06/25 02:18:39;;;;;;;7.20;4.88;;;;;;;18.86;100.00;100124.81;5163518;28;20027;-73
2022/06/25 02:21:09;;;;;;;11.85;5.05;;;;;;;18.88;100.00;100125.53;5159462;28;20069;-73
2022/06/25 02:23:40;;;;;;;7.32;4.70;;;;;;;18.90;100.00;100133.38;5171282;28;20026;-73
2022/06/25 02:26:10;;;;;;;8.57;4.65;;;;;;;18.92;100.00;100124.31;5167820;28;20026;-73
2022/06/25 02:28:40;;;;;;;6.43;4.82;;;;;;;18.83;100.00;100119.75;5168169;28;20033;-74
2022/06/25 02:31:11;;;;;;;12.38;5.32;;;;;;;18.68;100.00;100120.03;5185976;28;20680;-73
2022/06/25 02:33:41;;;;;;;9.50;5.55;;;;;;;18.71;100.00;100129.56;5165540;28;20096;-74
2022/06/25 02:36:11;;;;;;;10.70;5.80;;;;;;;18.68;100.00;100127.16;5170714;28;20061;-73
2022/06/25 02:38:42;;;;;;;7.45;4.93;;;;;;;18.65;100.00;100119.47;5166331;28;20023;-73
2022/06/25 02:41:12;;;;;;;10.70;5.68;;;;;;;18.62;100.00;100131.13;5156268;28;20022;-74
2022/06/25 02:43:43;;;;;;;10.00;5.35;;;;;;;18.52;100.00;100134.56;5171713;28;20036;-74
2022/06/25 02:46:13;;;;;;;13.05;5.43;;;;;;;18.53;100.00;100128.31;5167662;28;20033;-74
2022/06/25 02:48:43;;;;;;;9.07;5.30;;;;;;;18.58;100.00;100118.22;5167503;28;20075;-73
2022/06/25 02:51:14;;;;;;;10.85;4.97;;;;;;;18.62;100.00;100125.81;5166144;28;20025;-74
2022/06/25 02:53:44;;;;;;;13.07;5.40;;;;;;;18.63;100.00;100126.66;5167349;28;20027;-73
2022/06/25 02:59:08;;;;;;;7.57;4.63;;;;;;;18.93;100.00;100127.81;5171558;28;20144;-73
2022/06/25 03:01:38;;;;;;;11.52;4.57;;;;;;;19.04;100.00;100127.81;5167970;28;20038;-74
2022/06/25 03:04:09;;;;;;;8.10;5.20;;;;;;;18.74;100.00;100124.91;5171606;28;20495;-74
2022/06/25 03:06:39;;;;;;;9.02;4.03;;;;;;;18.68;100.00;100124.50;5158282;28;20098;-74
2022/06/25 03:09:09;;;;;;;10.20;5.05;;;;;;;18.59;100.00;100135.78;5163955;28;20080;-75
2022/06/25 03:11:40;;;;;;;10.65;4.63;;;;;;;18.56;100.00;100136.03;5166787;28;20022;-74
2022/06/25 03:14:10;;;;;;;7.22;4.15;;;;;;;18.73;100.00;100123.22;5170631;28;20030;-72
2022/06/25 03:16:41;;;;;;;9.27;3.90;;;;;;;18.84;100.00;100126.72;5167583;28;20022;-74
2022/06/25 03:19:12;;;;;;;8.50;4.13;;;;;;;18.79;100.00;100126.22;5165118;28;20038;-73
2022/06/25 03:21:45;;;;;;;9.38;4.47;;;;;;;18.82;100.00;100127.78;5166932;28;20022;-74
2022/06/25 03:24:15;;;;;;;7.43;4.57;;;;;;;18.79;100.00;100133.31;5163551;28;20076;-72
2022/06/25 03:26:45;;;;;;;8.93;4.40;;;;;;;18.80;100.00;100135.00;5166772;28;20480;-74
2022/06/25 03:29:16;;;;;;;9.57;4.32;;;;;;;18.78;100.00;100137.75;5170788;28;20037;-72
2022/06/25 03:31:46;;;;;;;8.68;4.68;;;;;;;18.79;100.00;100142.09;5163562;28;20038;-73
2022/06/25 03:34:16;;;;;;;7.60;4.90;;;;;;;18.67;100.00;100139.53;5170445;28;20484;-74
2022/06/25 03:36:47;;;;;;;9.65;5.25;;;;;;;18.72;100.00;100149.78;5174673;28;20060;-74
2022/06/25 03:39:17;;;;;;;11.40;5.75;;;;;;;18.82;100.00;100146.34;5172848;28;20038;-73
2022/06/25 03:41:48;;;;;;;12.25;4.57;;;;;;;18.86;100.00;100151.28;5171910;28;20041;-73
2022/06/25 03:44:18;;;;;;;13.15;4.38;;;;;;;18.84;100.00;100153.22;5172766;28;20034;-74
2022/06/25 03:46:48;;;;;;;9.52;4.53;;;;;;;18.83;100.00;100164.75;5171463;28;20022;-74
2022/06/25 03:49:19;;;;;;;12.05;4.20;;;;;;;18.62;100.00;100156.72;5168463;28;20026;-74
2022/06/25 03:51:49;;;;;;;10.85;4.60;;;;;;;18.75;100.00;100163.66;5167578;28;20022;-74
2022/06/25 03:54:20;;;;;;;11.18;4.82;;;;;;;18.67;100.00;100166.00;5166479;28;20223;-73
2022/06/25 03:56:51;;;;;;;9.23;4.80;;;;;;;18.65;100.00;100175.06;5166985;28;20037;-72
2022/06/25 03:59:21;;;;;;;10.73;5.05;;;;;;;18.76;100.00;100176.75;5166738;28;20388;-75
2022/06/25 04:01:51;;;;;;;10.13;5.55;;;;;;;18.75;100.00;100176.91;5167486;28;20116;-73
2022/06/25 04:04:23;;;;;;;13.85;6.00;;;;;;;18.83;100.00;100178.00;5166373;28;20034;-70
2022/06/25 04:06:53;;;;;;;15.27;5.88;;;;;;;18.72;100.00;100181.56;5166569;28;20406;-73
2022/06/25 04:09:23;;;;;;;11.27;5.70;;;;;;;18.99;100.00;100181.19;5181255;28;20033;-73
2022/06/25 04:11:54;;;;;;;17.75;5.78;;;;;;;19.32;100.00;100183.94;5167311;28;20047;-74
2022/06/25 04:14:24;;;;;;;12.30;6.28;;;;;;;19.03;100.00;100187.06;5166430;28;20057;-74
2022/06/25 04:16:55;;;;;;;13.90;5.93;;;;;;;19.30;100.00;100187.66;5166406;28;20083;-75
2022/06/25 04:19:25;;;;;;;14.13;6.57;;;;;;;19.26;100.00;100194.16;5166472;28;20033;-73
2022/06/25 04:21:56;;;;;;;16.52;6.30;;;;;;;19.15;100.00;100194.94;5166271;28;20561;-75
2022/06/25 04:24:26;;;;;;;13.10;6.57;;;;;;;19.47;100.00;100198.59;5166183;28;20084;-73
2022/06/25 04:26:56;;;;;;;13.48;6.60;;;;;;;19.51;100.00;100196.56;5166610;28;20045;-73
2022/06/25 04:29:27;;;;;;;13.75;6.70;;;;;;;19.60;100.00;100207.31;5166062;28;20041;-73
2022/06/25 04:31:58;;;;;;;14.93;6.50;;;;;;;19.39;100.00;100202.81;5166813;28;20672;-74
2022/06/25 04:34:28;;;;;;;14.65;7.00;;;;;;;19.41;100.00;100204.41;5184524;28;20077;-73
2022/06/25 04:36:58;;;;;;;15.15;6.63;;;;;;;19.52;100.00;100217.69;5161337;28;20038;-73
2022/06/25 04:39:29;;;;;;;11.75;5.93;;;;;;;19.64;100.00;100215.88;5172678;28;20411;-74
2022/06/25 04:42:00;;;;;;;15.18;6.22;;;;;;;19.64;100.00;100208.75;5172832;28;20430;-73
2022/06/25 04:44:31;;;;;;;12.30;6.43;;;;;;;19.77;100.00;100219.25;5172728;28;20030;-72
2022/06/25 04:47:01;;;;;;;17.15;6.82;;;;;;;19.66;100.00;100221.91;5171286;28;20032;-73
2022/06/25 04:49:31;;;;;;;13.48;6.40;;;;;;;19.64;100.00;100219.34;5161588;28;20036;-73
2022/06/25 04:52:02;;;;;;;9.90;5.65;;;;;;;19.73;100.00;100218.66;5180828;28;20113;-71
2022/06/25 04:54:32;;;;;;;10.82;6.00;;;;;;;20.08;100.00;100216.72;5172606;28;20132;-73
2022/06/25 04:57:03;;;;;;;11.40;5.68;;;;;;;20.02;100.00;100225.19;5170737;28;20502;-74
2022/06/25 04:59:33;;;;;;;10.85;6.03;;;;;;;19.97;100.00;100221.16;5172594;28;20488;-73
2022/06/25 05:02:04;;;;;;;8.18;5.75;;;;;;;20.19;100.00;100211.41;5171270;28;20281;-73
2022/06/25 05:04:34;;;;;;;14.95;5.40;;;;;;;20.40;100.00;100214.13;5170985;28;20030;-73
2022/06/25 05:07:05;;;;;;;11.18;5.78;;;;;;;20.33;100.00;100229.69;5168748;28;20492;-74
2022/06/25 05:09:35;;;;;;;12.88;6.18;;;;;;;20.42;100.00;100234.28;5172234;28;20029;-74
2022/06/25 05:12:06;;;;;;;15.23;5.90;;;;;;;20.72;100.00;100234.44;5170385;28;20022;-73
2022/06/25 05:14:36;;;;;;;11.77;5.70;;;;;;;20.72;100.00;100242.41;5172633;28;20345;-73
2022/06/25 05:17:07;;;;;;;9.00;5.20;;;;;;;20.78;100.00;100247.19;5169832;28;20026;-74
2022/06/25 05:19:37;;;;;;;10.43;5.65;;;;;;;20.70;100.00;100249.66;5160960;28;20606;-74
2022/06/25 05:22:07;;;;;;;11.50;5.60;;;;;;;20.64;100.00;100255.44;5164977;28;20109;-73
2022/06/25 05:24:38;;;;;;;12.73;5.40;;;;;;;20.52;100.00;100256.47;5172825;28;20030;-75
2022/06/25 05:27:08;;;;;;;9.38;5.32;;;;;;;20.41;100.00;100260.94;5169597;28;20387;-74
2022/06/25 05:29:38;;;;;;;11.85;4.70;;;;;;;20.66;100.00;100263.31;5172321;28;20280;-73
2022/06/25 05:32:09;;;;;;;8.70;5.10;;;;;;;20.65;100.00;100270.41;5168280;28;20117;-73
2022/06/25 05:34:39;;;;;;;8.93;4.20;;;;;;;20.60;100.00;100259.31;5172464;28;20018;-73
2022/06/25 05:37:09;;;;;;;9.90;4.45;;;;;;;20.68;100.00;100259.53;5184164;28;20117;-74
2022/06/25 05:39:39;;;;;;;10.38;4.45;;;;;;;20.86;100.00;100260.72;5172406;28;20113;-71
2022/06/25 05:42:10;;;;;;;14.38;5.22;;;;;;;21.12;100.00;100262.06;5184288;28;20462;-73
2022/06/25 05:44:40;;;;;;;7.30;4.45;;;;;;;21.32;100.00;100269.19;5172623;28;20087;-74
2022/06/25 05:47:10;;;;;;;8.50;4.10;;;;;;;21.69;100.00;100265.09;5167349;28;20109;-73
2022/06/25 05:49:41;;;;;;;7.43;4.57;;;;;;;21.86;100.00;100273.34;5163752;28;20441;-74
2022/06/25 05:52:11;;;;;;;7.57;3.95;;;;;;;22.56;100.00;100276.00;5164393;28;20112;-74
2022/06/25 05:54:41;;;;;;;9.70;4.00;;;;;;;23.20;98.43;100278.03;5169813;28;20101;-74
2022/06/25 05:57:12;;;;;;;6.88;3.40;;;;;;;23.37;99.77;100286.16;5170001;28;20149;-74
2022/06/25 05:59:42;;;;;;;5.25;3.50;;;;;;;23.50;96.56;100281.38;5161455;28;20613;-74
2022/06/25 06:02:12;;;;;;;4.53;2.63;;;;;;;23.90;94.01;100281.16;5170333;28;20049;-74
2022/06/25 06:04:43;;;;;;;5.53;2.90;;;;;;;24.48;90.25;100285.25;5168338;28;20022;-75
2022/06/25 06:07:13;;;;;;;5.57;2.47;;;;;;;23.94;91.49;100283.41;5171141;28;20448;-75
2022/06/25 06:09:43;;;;;;;5.22;2.60;;;;;;;24.82;87.07;100285.34;5168344;28;20049;-73
2022/06/25 06:12:14;;;;;;;5.63;2.70;;;;;;;25.19;82.25;100286.09;5172500;28;20021;-74
2022/06/25 06:14:44;;;;;;;4.13;2.30;;;;;;;24.96;83.23;100286.66;5168605;28;20426;-74
2022/06/25 06:17:14;;;;;;;5.78;2.17;;;;;;;24.80;85.27;100287.31;5171093;28;20041;-72
2022/06/25 06:19:45;;;;;;;5.32;2.30;;;;;;;25.66;82.22;100291.97;5159617;28;20026;-74
2022/06/25 06:22:15;;;;;;;4.47;2.10;;;;;;;25.66;80.89;100290.13;5164061;28;20034;-74
2022/06/25 06:24:46;;;;;;;4.07;2.23;;;;;;;25.82;80.51;100286.72;5171780;28;20025;-76
2022/06/25 06:27:16;;;;;;;5.28;2.20;;;;;;;25.97;78.89;100290.53;5168793;28;20352;-74
2022/06/25 06:29:46;;;;;;;5.63;2.20;;;;;;;26.30;77.88;100286.97;5171520;28;20022;-75
2022/06/25 06:32:17;;;;;;;6.60;2.05;;;;;;;26.17;77.62;100286.63;5169038;28;20101;-74
2022/06/25 06:34:47;;;;;;;5.47;2.38;;;;;;;26.46;76.14;100297.78;5199952;23;20807;-74
2022/06/25 06:37:18;;;;;;;3.72;1.92;;;;;;;26.45;76.71;100298.78;5176694;28;20060;-73
2022/06/25 06:39:48;;;;;;;5.75;2.08;;;;;;;26.39;76.94;100294.06;5178127;28;20053;-73
2022/06/25 06:42:18;;;;;;;4.88;2.15;;;;;;;27.34;75.63;100297.03;5179080;28;20025;-73
2022/06/25 06:44:49;;;;;;;5.82;1.83;;;;;;;27.19;74.27;100298.72;5179293;28;20253;-73
2022/06/25 06:47:19;;;;;;;3.00;1.50;;;;;;;27.57;72.99;100292.66;5178980;28;20072;-73
2022/06/25 06:49:49;;;;;;;5.80;1.80;;;;;;;27.80;72.41;100298.22;5175317;28;20419;-73
2022/06/25 06:52:20;;;;;;;3.88;2.08;;;;;;;27.15;74.17;100292.00;5178660;28;20276;-73
2022/06/25 06:54:51;;;;;;;2.30;1.65;;;;;;;28.23;70.78;100295.91;5178146;28;20067;-73
2022/06/25 06:57:21;;;;;;;4.83;1.80;;;;;;;28.46;70.50;100299.53;5178668;28;20537;-73
2022/06/25 06:59:51;;;;;;;5.07;1.60;;;;;;;28.01;70.13;100302.03;5180228;28;20283;-73
2022/06/25 07:02:23;;;;;;;4.35;1.70;;;;;;;27.87;69.54;100300.03;5183812;28;20674;-73
2022/06/25 07:04:53;;;;;;;6.22;1.45;;;;;;;27.92;69.82;100300.34;5183455;28;20406;-73
2022/06/25 07:07:24;;;;;;;6.03;1.60;;;;;;;28.65;68.78;100301.78;5183260;28;20032;-73
2022/06/25 07:09:54;;;;;;;3.33;1.40;;;;;;;29.74;66.27;100298.69;5182879;28;20293;-73
2022/06/25 07:12:24;;;;;;;3.40;1.45;;;;;;;30.04;65.28;100301.28;5184075;28;20022;-73
2022/06/25 07:14:55;;;;;;;3.90;1.70;;;;;;;29.86;65.20;100305.28;5182735;28;20474;-73
2022/06/25 07:17:25;;;;;;;3.38;1.40;;;;;;;30.06;65.71;100295.69;5183080;28;20053;-73
2022/06/25 07:19:55;;;;;;;3.65;1.60;;;;;;;29.53;66.17;100306.63;5183018;28;20029;-73
2022/06/25 07:22:26;;;;;;;3.23;1.30;;;;;;;29.77;65.37;100301.03;5183119;28;20034;-73
2022/06/25 07:24:56;;;;;;;5.28;1.50;;;;;;;29.94;65.21;100297.97;5183488;28;20280;-73
2022/06/25 07:27:26;;;;;;;3.63;1.58;;;;;;;30.09;63.59;100306.13;5183252;28;20033;-73
2022/06/25 07:29:57;;;;;;;3.78;1.45;;;;;;;30.93;61.80;100297.28;5183799;28;20030;-73
2022/06/25 07:32:27;;;;;;;7.53;1.50;;;;;;;30.46;60.98;100303.31;5184064;28;20113;-73
2022/06/25 07:34:57;;;;;;;2.63;1.20;;;;;;;30.67;61.12;100306.09;5183034;28;20277;-73
2022/06/25 07:37:28;;;;;;;2.97;1.40;;;;;;;30.35;62.39;100306.47;5183182;28;20084;-73
2022/06/25 07:39:58;;;;;;;1.67;1.00;;;;;;;31.29;61.64;100308.91;5183810;28;20307;-73
2022/06/25 07:42:32;;;;;;;4.90;1.30;;;;;;;31.40;59.49;100308.38;5183229;28;20463;-73
2022/06/25 07:45:03;;;;;;;4.05;1.10;;;;;;;31.69;59.87;100310.13;5183328;28;20033;-72
2022/06/25 07:47:38;;;;;;;2.78;1.25;;;;;;;31.48;59.99;100310.09;5182557;28;20388;-73
2022/06/25 07:52:57;;;;;;;3.55;1.08;;;;;;;31.40;60.62;100305.66;5181136;28;20037;-73
2022/06/25 07:55:28;;;;;;;2.55;1.00;;;;;;;32.31;59.32;100303.72;5183198;28;20022;-73
2022/06/25 07:57:58;;;;;;;4.25;1.10;;;;;;;32.71;58.10;100297.47;5182335;28;20053;-73
2022/06/25 08:00:29;;;;;;;1.90;1.00;;;;;;;31.96;59.29;100293.91;5182932;28;20030;-73
2022/06/25 08:03:01;;;;;;;3.20;1.15;;;;;;;31.52;60.69;100309.53;5183315;28;20273;-73
2022/06/25 08:05:33;;;;;;;2.28;1.08;;;;;;;32.91;57.50;100303.78;5182740;28;20058;-73
2022/06/25 08:08:04;;;;;;;2.85;0.80;;;;;;;32.51;57.11;100299.22;5181833;28;20037;-73
2022/06/25 08:10:34;;;;;;;2.72;1.10;;;;;;;31.75;58.52;100310.19;5182441;28;20533;-73
2022/06/25 08:13:05;;;;;;;3.43;1.20;;;;;;;31.41;58.28;100314.63;5182780;28;20060;-73
2022/06/25 08:15:35;;;;;;;1.85;1.00;;;;;;;31.78;59.17;100315.19;5181022;28;20315;-73
2022/06/25 08:18:07;;;;;;;3.30;1.48;;;;;;;30.82;61.57;100310.44;5181819;28;20088;-72
2022/06/25 08:20:37;;;;;;;4.15;1.20;;;;;;;31.37;61.30;100316.03;5182099;28;20105;-73
2022/06/25 08:23:08;;;;;;;2.05;1.10;;;;;;;31.16;59.22;100314.16;5182892;28;20109;-73
2022/06/25 08:25:38;;;;;;;3.17;1.10;;;;;;;31.80;59.21;100323.94;5182330;28;20380;-73
2022/06/25 08:28:09;;;;;;;2.60;1.05;;;;;;;31.02;60.87;100323.13;5181960;28;20095;-73
2022/06/25 08:30:41;;;;;;;1.73;0.90;;;;;;;31.04;61.00;100323.75;5182322;28;20021;-73
2022/06/25 08:33:11;;;;;;;2.67;1.30;;;;;;;30.28;61.88;100327.94;5182300;28;20030;-72
2022/06/25 08:35:42;;;;;;;2.03;1.20;;;;;;;29.54;63.80;100338.78;5178265;28;20033;-73
2022/06/25 08:38:13;;;;;;;3.65;0.98;;;;;;;28.60;66.06;100341.84;5182009;28;20071;-72
2022/06/25 08:40:43;;;;;;;2.85;1.10;;;;;;;28.39;65.70;100343.44;5182329;28;20029;-72
2022/06/25 08:43:14;;;;;;;2.67;1.00;;;;;;;28.47;65.44;100336.19;5181652;28;20403;-72
2022/06/25 08:45:44;;;;;;;3.60;1.00;;;;;;;28.12;67.59;100341.97;5182083;28;20026;-72
2022/06/25 08:48:20;;;;;;;3.13;1.10;;;;;;;27.75;67.68;100338.19;5180149;28;20029;-72
2022/06/25 08:50:51;;;;;;;;;;;;;;;27.69;67.07;100342.34;5182967;28;20026;-72
2022/06/25 08:53:21;;;;;;;3.88;1.40;;;;;;;28.68;65.48;100327.50;5181621;28;19917;-72
2022/06/25 08:55:52;;;;;;;3.05;1.05;;;;;;;28.73;64.65;100342.94;5181374;28;20030;-72
2022/06/25 08:58:22;;;;;;;7.10;1.80;;;;;;;29.07;67.00;100337.25;5181231;28;20435;-72
2022/06/25 09:00:53;;;;;;;2.63;0.98;;;;;;;29.78;62.41;100329.66;5181746;28;20038;-72
2022/06/25 09:03:25;;;;;;;1.92;1.00;;;;;;;31.20;59.47;100320.03;5181580;28;20049;-73
2022/06/25 09:05:55;;;;;;;2.67;0.98;;;;;;;32.02;59.02;100322.03;5181618;28;20117;-73
2022/06/25 09:08:25;;;;;;;2.10;0.90;;;;;;;32.20;59.27;100328.63;5180734;28;20570;-73
2022/06/25 09:10:56;;;;;;;2.53;0.90;;;;;;;33.13;56.63;100325.09;5181477;28;20272;-72
2022/06/25 09:13:26;;;;;;;1.40;1.00;;;;;;;33.10;55.25;100328.22;5181353;28;20276;-73
2022/06/25 09:15:56;;;;;;;1.70;0.88;;;;;;;34.13;54.36;100323.09;5181635;28;20030;-74
2022/06/25 09:18:27;;;;;;;4.50;1.08;;;;;;;33.58;54.29;100320.81;5180569;28;20472;-73
2022/06/25 09:21:07;;;;;;;2.85;0.85;;;;;;;34.45;52.88;100325.78;5181372;28;20415;-73
2022/06/25 09:23:56;;;;;;;1.98;0.85;;;;;;;34.38;53.72;100329.56;5181171;28;20037;-73
2022/06/25 09:26:26;;;;;;;2.35;0.93;;;;;;;33.66;55.39;100326.03;5174151;28;20045;-73
2022/06/25 09:29:00;;;;;;;1.55;0.90;;;;;;;33.92;56.19;100331.47;5181223;28;20068;-73
2022/06/25 09:31:34;;;;;;;2.97;0.90;;;;;;;34.00;55.19;100323.13;5181375;28;20025;-73
2022/06/25 09:34:06;;;;;;;3.25;1.08;;;;;;;33.07;57.87;100334.06;5181678;28;20025;-73
2022/06/25 09:36:37;;;;;;;3.53;1.00;;;;;;;34.47;56.64;100318.25;5180532;28;20026;-73
2022/06/25 09:39:07;;;;;;;4.93;1.00;;;;;;;35.37;52.57;100314.28;5181905;28;20383;-73
2022/06/25 09:41:50;;;;;;;4.00;1.10;;;;;;;35.18;52.53;100315.25;5180941;28;20053;-73
2022/06/25 09:44:21;;;;;;;2.08;0.98;;;;;;;33.64;54.05;100320.81;5178412;28;20311;-73
2022/06/25 09:46:56;;;;;;;2.78;1.10;;;;;;;32.94;54.72;100320.47;5181481;28;20038;-73
2022/06/25 09:49:27;;;;;;;2.78;0.80;;;;;;;33.20;56.17;100317.88;5180777;28;20022;-73
2022/06/25 09:52:01;;;;;;;2.22;0.98;;;;;;;33.69;55.43;100312.06;5180847;28;20091;-73
2022/06/25 09:54:32;;;;;;;4.00;1.00;;;;;;;34.41;54.04;100315.53;5180962;28;20025;-73
2022/06/25 09:57:03;;;;;;;1.75;1.05;;;;;;;33.64;53.91;100315.38;5180600;28;20512;-73
2022/06/25 09:59:36;;;;;;;2.88;1.00;;;;;;;34.18;54.86;100309.75;5180005;28;20028;-73
2022/06/25 10:02:06;;;;;;;6.32;1.20;;;;;;;34.12;55.67;100307.84;5180157;28;20034;-73
2022/06/25 10:04:37;;;;;;;5.93;0.82;;;;;;;32.42;57.32;100311.25;5179433;28;20030;-73
2022/06/25 10:07:09;;;;;;;2.05;0.93;;;;;;;33.02;56.96;100303.19;5180137;28;20084;-73
2022/06/25 10:09:41;;;;;;;2.33;0.80;;;;;;;33.82;54.70;100302.06;5180108;28;20036;-73
2022/06/25 10:12:13;;;;;;;3.22;0.90;;;;;;;34.16;53.55;100298.25;5179609;28;20084;-72
2022/06/25 10:14:43;;;;;;;2.03;0.80;;;;;;;33.78;54.43;100303.53;5178512;28;20041;-73
2022/06/25 10:17:14;;;;;;;1.30;0.70;;;;;;;33.03;54.96;100299.44;5179345;28;20334;-72
2022/06/25 10:19:46;;;;;;;1.63;0.85;;;;;;;32.34;55.59;100295.19;5180142;28;20479;-73
2022/06/25 10:22:17;;;;;;;2.10;0.70;;;;;;;31.19;58.84;100297.56;5180094;28;20022;-72
2022/06/25 10:24:47;;;;;;;2.88;0.70;;;;;;;31.18;56.69;100295.91;5180758;28;20038;-72
2022/06/25 10:27:20;;;;;;;3.00;0.77;;;;;;;31.05;57.17;100290.31;5179492;28;20084;-72
2022/06/25 10:29:59;;;;;;;4.57;0.90;;;;;;;30.98;57.50;100286.72;5179889;28;20029;-72
2022/06/25 10:32:34;;;;;;;3.72;0.82;;;;;;;30.64;57.49;100295.69;5180253;28;20543;-72
2022/06/25 10:35:04;;;;;;;2.72;0.70;;;;;;;30.29;58.81;100282.94;5179222;28;20026;-71
2022/06/25 10:38:13;;;;;;;2.80;0.50;;;;;;;29.93;56.90;100292.78;5179327;28;20502;-72
2022/06/25 10:40:49;;;;;;;1.42;0.60;;;;;;;30.18;58.57;100281.56;5178006;28;20391;-72
2022/06/25 10:43:49;;;;;;;2.80;0.60;;;;;;;30.21;57.28;100288.41;5177251;28;20033;-72
2022/06/25 10:46:32;;;;;;;0.90;0.43;;;;;;;30.03;56.11;100282.56;5176906;28;20030;-72
2022/06/25 10:49:06;;;;;;;1.70;0.60;;;;;;;30.10;58.69;100287.03;5178526;28;20087;-72
2022/06/25 10:51:52;;;;;;;2.07;0.70;;;;;;;30.23;59.75;100281.00;5179745;28;20028;-71
2022/06/25 10:54:22;;;;;;;3.00;0.60;;;;;;;29.96;57.72;100278.91;5178363;28;20483;-71
2022/06/25 10:56:58;;;;;;;1.13;0.50;;;;;;;30.16;58.52;100274.66;5178118;28;20048;-71
2022/06/25 10:59:39;;;;;;;1.42;0.50;;;;;;;30.36;58.54;100282.00;5178626;28;20602;-72
2022/06/25 11:02:11;;;;;;;2.45;0.50;;;;;;;30.18;57.22;100272.63;5179660;28;20037;-72
2022/06/25 11:04:53;;;;;;;1.92;0.60;;;;;;;30.12;58.12;100284.97;5177188;28;20029;-72
2022/06/25 11:07:25;;;;;;;2.83;0.52;;;;;;;30.32;58.83;100271.78;5176771;28;20034;-72
2022/06/25 11:09:58;;;;;;;2.50;0.60;;;;;;;29.81;57.06;100270.84;5175217;28;20036;-71
2022/06/25 11:12:30;;;;;;;0.75;0.50;;;;;;;30.00;55.90;100274.81;5173102;28;20218;-72
2022/06/25 11:15:02;;;;;;;0.63;0.35;;;;;;;30.22;56.40;100268.53;5175513;28;20037;-72
2022/06/25 11:17:32;;;;;;;0.88;0.43;;;;;;;30.17;54.12;100279.88;5175694;28;20045;-72
2022/06/25 11:20:08;;;;;;;1.17;0.60;;;;;;;29.94;54.26;100278.28;5176158;28;20026;-72
2022/06/25 11:22:45;;;;;;;;;;;;;;;29.88;54.23;100276.31;5174754;28;20080;-72
2022/06/25 11:30:54;;;;;;;0.60;0.47;;;;;;;30.04;55.90;100276.16;5175779;28;20121;-72
2022/06/25 11:33:24;;;;;;;1.00;0.50;;;;;;;30.17;55.29;100260.16;5178576;28;20499;-72
2022/06/25 11:35:55;;;;;;;1.50;0.60;;;;;;;29.78;55.71;100267.66;5178118;28;20033;-71
2022/06/25 11:38:25;;;;;;;0.77;0.50;;;;;;;29.47;57.99;100261.56;5178080;28;20628;-72
2022/06/25 11:40:55;;;;;;;2.88;0.60;;;;;;;29.71;57.16;100264.03;5177445;28;20483;-72
2022/06/25 11:43:29;;;;;;;1.17;0.53;;;;;;;29.91;55.64;100265.97;5173593;28;20049;-72
2022/06/25 11:46:01;;;;;;;1.10;0.40;;;;;;;30.09;56.15;100262.97;5176386;28;20356;-72
2022/06/25 11:48:31;;;;;;;1.88;0.80;;;;;;;29.63;56.25;100266.78;5180716;28;20045;-72
2022/06/25 11:51:03;;;;;;;1.67;0.63;;;;;;;30.02;58.34;100264.69;5181014;28;20399;-72
2022/06/25 11:53:36;;;;;;;1.38;0.52;;;;;;;30.04;56.38;100266.22;5181856;28;20457;-72